createdAt,value
2023-03-12T01:29:10.204Z,7.10
2023-03-12T01:39:12.165Z,7.50
2023-03-12T01:49:19.896Z,7.80
2023-03-12T01:59:25.787Z,7.90
2023-03-12T02:09:29.669Z,8.10
2023-03-12T02:19:41.019Z,8.10
2023-03-12T02:29:45.708Z,8.20
2023-03-12T02:39:55.313Z,8.40
2023-03-12T02:49:58.591Z,8.50
2023-03-12T03:00:00.513Z,8.70
2023-03-12T03:10:04.782Z,8.80
2023-03-12T03:20:07.495Z,8.80
2023-03-12T03:30:12.065Z,8.90
2023-03-12T03:40:13.998Z,8.90
2023-03-12T03:50:17.727Z,8.80
2023-03-12T04:00:20.206Z,8.80
2023-03-12T04:10:25.005Z,8.80
2023-03-12T04:20:26.966Z,8.60
2023-03-12T04:30:30.281Z,8.50
2023-03-12T04:40:32.228Z,8.50
2023-03-12T04:50:35.512Z,8.50
2023-03-12T05:00:39.380Z,8.40
2023-03-12T05:10:42.690Z,8.40
2023-03-12T05:20:44.582Z,8.40
2023-03-12T05:30:47.955Z,8.40
2023-03-12T05:40:53.658Z,8.40
2023-03-12T05:50:57.241Z,8.40
2023-03-12T06:00:59.550Z,8.40
2023-03-12T06:11:02.896Z,8.40
2023-03-12T06:21:12.502Z,8.30
2023-03-12T06:31:16.598Z,8.20
2023-03-12T06:41:20.323Z,8.20
2023-03-12T06:51:23.665Z,8.20
2023-03-12T07:01:25.819Z,8.20
2023-03-12T07:11:29.134Z,8.30
2023-03-12T07:21:31.104Z,8.40
2023-03-12T07:31:34.427Z,8.60
2023-03-12T07:41:36.335Z,8.70
2023-03-12T07:51:39.635Z,8.90
2023-03-12T08:01:43.924Z,9.10
2023-03-12T08:11:48.248Z,9.30
2023-03-12T08:21:50.271Z,9.70
2023-03-12T08:32:04.010Z,10.10
2023-03-12T08:42:07.029Z,10.30
2023-03-12T08:52:10.391Z,10.50
2023-03-12T09:02:12.964Z,10.70
2023-03-12T09:12:16.381Z,11.20
2023-03-12T09:22:18.331Z,11.20
2023-03-12T09:32:21.666Z,11.50
2023-03-12T09:42:27.525Z,12.20
2023-03-12T10:03:59.459Z,12.10
2023-03-12T10:14:23.423Z,12.90
2023-03-12T10:24:39.056Z,12.60
2023-03-12T10:34:45.591Z,13.00
2023-03-12T10:44:52.744Z,14.00
2023-03-12T10:54:54.696Z,14.70
2023-03-12T11:04:58.687Z,14.30
2023-03-12T11:15:17.525Z,13.80
2023-03-12T11:25:26.071Z,14.00
2023-03-12T11:35:42.609Z,14.10
2023-03-12T11:46:00.693Z,14.20
2023-03-12T11:56:14.218Z,13.80
2023-03-12T12:06:26.211Z,13.90
2023-03-12T12:16:50.262Z,14.00
2023-03-12T12:38:10.459Z,13.90
2023-03-12T12:48:17.747Z,14.00
2023-03-12T12:58:26.650Z,14.20
2023-03-12T13:08:34.353Z,14.10
2023-03-12T13:18:38.917Z,14.10
2023-03-12T13:29:11.461Z,14.10
2023-03-12T13:39:29.787Z,14.00
2023-03-12T13:49:40.533Z,14.00
2023-03-12T13:59:50.327Z,14.00
2023-03-12T14:09:56.128Z,14.00
2023-03-12T14:20:01.874Z,13.70
2023-03-12T14:30:12.075Z,13.70
2023-03-12T14:40:23.537Z,13.50
2023-03-12T14:50:28.301Z,13.10
2023-03-12T15:00:32.177Z,12.50
2023-03-12T15:10:34.167Z,12.20
2023-03-12T15:20:37.846Z,12.20
2023-03-12T15:30:40.952Z,12.20
2023-03-12T15:40:49.288Z,11.90
2023-03-12T15:50:51.285Z,11.80
2023-03-12T16:00:54.924Z,11.50
2023-03-12T16:10:56.909Z,11.50
2023-03-12T16:21:00.247Z,11.30
2023-03-12T16:31:02.675Z,11.40
2023-03-12T16:41:06.070Z,11.20
2023-03-12T16:51:13.954Z,11.10
2023-03-12T17:01:19.344Z,10.90
2023-03-12T17:11:23.620Z,10.80
2023-03-12T17:21:26.997Z,10.80
2023-03-12T17:31:29.169Z,10.60
2023-03-12T17:41:33.337Z,10.50
2023-03-12T17:51:35.426Z,10.50
2023-03-12T18:12:42.220Z,10.50
2023-03-12T18:22:44.555Z,10.40
2023-03-12T18:42:59.886Z,10.30
2023-03-12T18:53:01.904Z,10.30
2023-03-12T19:03:05.366Z,10.30
2023-03-12T19:13:07.533Z,10.40
2023-03-12T19:23:10.835Z,10.20
2023-03-12T19:33:13.009Z,10.10
2023-03-12T19:43:16.488Z,10.10
2023-03-12T19:53:18.518Z,10.10
2023-03-12T20:03:21.863Z,10.10
2023-03-12T20:13:23.827Z,10.00
2023-03-12T20:23:27.173Z,10.00
2023-03-12T20:33:29.132Z,10.20
2023-03-12T20:43:32.449Z,10.30
2023-03-12T20:54:07.398Z,10.50
2023-03-12T21:04:10.746Z,10.70
2023-03-12T21:14:12.679Z,10.70
2023-03-12T21:24:15.970Z,10.90
2023-03-12T21:34:17.888Z,10.90
2023-03-12T21:44:21.193Z,11.00
2023-03-12T21:54:23.366Z,11.10
2023-03-12T22:15:30.406Z,11.30
2023-03-12T22:25:34.563Z,11.30
2023-03-12T22:35:43.482Z,11.40
2023-03-12T22:45:45.469Z,11.50
2023-03-12T22:55:56.772Z,11.60
2023-03-12T23:05:59.331Z,11.60
2023-03-12T23:16:03.896Z,11.60
2023-03-12T23:26:06.507Z,11.50
2023-03-12T23:36:12.524Z,11.60
2023-03-12T23:46:15.691Z,11.70
2023-03-12T23:56:21.624Z,11.80
